createdAt,value
2022-10-31T00:01:43.839Z,96541.00
2022-10-31T00:04:11.934Z,96576.47
2022-10-31T00:06:39.986Z,96561.22
2022-10-31T00:09:08.079Z,96559.41
2022-10-31T00:11:37.471Z,96573.66
2022-10-31T00:14:05.795Z,96573.44
2022-10-31T00:16:34.064Z,96579.75
2022-10-31T00:19:04.436Z,96556.53
2022-10-31T00:21:32.780Z,96586.31
2022-10-31T00:24:01.560Z,96571.19
2022-10-31T00:26:30.090Z,96586.47
2022-10-31T00:28:59.637Z,96590.28
2022-10-31T00:31:27.706Z,96588.28
2022-10-31T00:33:55.744Z,96584.53
2022-10-31T00:36:23.735Z,96592.72
2022-10-31T00:38:51.876Z,96591.72
2022-10-31T00:41:20.687Z,96576.66
2022-10-31T00:43:48.680Z,96588.22
2022-10-31T00:46:18.137Z,96589.97
2022-10-31T00:48:46.325Z,96585.47
2022-10-31T00:51:14.405Z,96586.31
2022-10-31T00:53:42.350Z,96593.97
2022-10-31T00:56:10.337Z,96591.41
2022-10-31T00:58:38.425Z,96583.75
2022-10-31T01:01:06.761Z,96590.69
2022-10-31T01:03:36.245Z,96589.97
2022-10-31T01:06:06.314Z,96542.31
2022-10-31T01:08:34.318Z,96585.97
2022-10-31T01:11:07.202Z,96582.38
2022-10-31T01:13:35.443Z,96592.38
2022-10-31T01:16:05.448Z,96587.28
2022-10-31T01:18:33.444Z,96572.16
2022-10-31T01:21:04.988Z,96580.69
2022-10-31T01:23:33.160Z,96573.25
2022-10-31T01:26:06.403Z,96565.16
2022-10-31T01:28:34.625Z,96566.34
2022-10-31T01:31:03.742Z,96548.28
2022-10-31T01:33:31.688Z,96564.53
2022-10-31T01:35:59.658Z,96558.91
2022-10-31T01:38:29.812Z,96559.88
2022-10-31T01:40:57.883Z,96511.44
2022-10-31T01:43:25.879Z,96568.28
2022-10-31T01:45:55.687Z,96558.06
2022-10-31T01:48:26.871Z,96550.78
2022-10-31T01:50:56.562Z,96557.97
2022-10-31T01:53:26.958Z,96562.19
2022-10-31T01:55:56.566Z,96570.63
2022-10-31T01:58:27.467Z,96512.97
2022-10-31T02:01:00.522Z,96562.19
2022-10-31T02:03:31.699Z,96554.81
2022-10-31T02:05:59.984Z,96531.31
2022-10-31T02:08:29.791Z,96548.72
2022-10-31T02:11:00.517Z,96564.31
2022-10-31T02:13:29.454Z,96551.75
2022-10-31T02:15:59.449Z,96560.28
2022-10-31T02:18:28.972Z,96543.88
2022-10-31T02:21:07.568Z,96557.56
2022-10-31T02:24:00.729Z,96553.16
2022-10-31T02:26:59.108Z,96558.28
2022-10-31T02:29:56.774Z,96554.84
2022-10-31T02:32:29.654Z,96553.81
2022-10-31T02:35:01.075Z,96521.75
2022-10-31T02:37:33.608Z,96547.19
2022-10-31T02:40:08.088Z,96515.94
2022-10-31T02:42:41.371Z,96529.41
2022-10-31T02:45:13.180Z,96555.56
2022-10-31T02:47:44.064Z,96538.06
2022-10-31T02:50:15.027Z,96550.56
2022-10-31T02:52:42.993Z,96553.66
2022-10-31T02:55:13.444Z,96554.44
2022-10-31T02:57:42.492Z,96556.91
2022-10-31T03:00:11.916Z,96555.09
2022-10-31T03:02:54.036Z,96564.66
2022-10-31T03:05:43.680Z,96564.66
2022-10-31T03:08:17.809Z,96569.13
2022-10-31T03:10:48.422Z,96542.97
2022-10-31T03:16:07.409Z,96559.84
2022-10-31T03:18:40.288Z,96559.63
2022-10-31T03:21:10.641Z,96511.81
2022-10-31T03:23:39.919Z,96566.22
2022-10-31T03:26:09.799Z,96468.19
2022-10-31T03:28:40.810Z,96564.66
2022-10-31T03:31:10.227Z,96583.16
2022-10-31T03:33:40.280Z,96540.16
2022-10-31T03:36:10.769Z,96461.56
2022-10-31T03:38:39.475Z,96572.41
2022-10-31T03:41:11.894Z,96578.34
2022-10-31T03:43:44.837Z,96572.50
2022-10-31T03:46:12.868Z,96573.53
2022-10-31T03:48:42.440Z,96574.22
2022-10-31T03:51:13.891Z,96579.25
2022-10-31T03:53:47.627Z,96579.97
2022-10-31T03:56:21.416Z,96578.97
2022-10-31T03:58:53.132Z,96577.91
2022-10-31T04:01:22.254Z,96568.13
2022-10-31T04:03:51.995Z,96572.84
2022-10-31T04:06:21.455Z,96553.16
2022-10-31T04:08:52.231Z,96549.28
2022-10-31T04:11:23.848Z,96576.25
2022-10-31T04:13:52.311Z,96578.69
2022-10-31T04:16:20.997Z,96577.06
2022-10-31T04:18:48.996Z,96479.50
2022-10-31T04:21:18.767Z,96493.69
2022-10-31T04:23:46.828Z,96575.50
2022-10-31T04:26:15.085Z,96563.13
2022-10-31T04:28:43.059Z,96561.66
2022-10-31T04:31:12.158Z,96572.78
2022-10-31T04:33:40.181Z,96573.59
2022-10-31T04:36:08.512Z,96568.28
2022-10-31T04:38:37.896Z,96570.78
2022-10-31T04:41:06.048Z,96571.41
2022-10-31T04:43:34.101Z,96553.91
2022-10-31T04:46:02.328Z,96547.97
2022-10-31T04:48:30.405Z,96560.91
2022-10-31T04:51:01.579Z,96539.50
2022-10-31T04:53:29.964Z,96565.00
2022-10-31T04:56:00.221Z,96565.53
2022-10-31T04:58:28.524Z,96564.44
2022-10-31T05:00:57.470Z,96567.81
2022-10-31T05:03:25.606Z,96574.44
2022-10-31T05:05:53.761Z,96555.25
2022-10-31T05:08:21.746Z,96564.06
2022-10-31T05:10:51.021Z,96558.34
2022-10-31T05:15:55.580Z,96562.84
2022-10-31T05:18:25.241Z,96564.50
2022-10-31T05:20:53.652Z,96566.97
2022-10-31T05:23:22.042Z,96549.22
2022-10-31T05:25:50.592Z,96551.56
2022-10-31T05:28:18.561Z,96561.53
2022-10-31T05:30:47.944Z,96572.63
2022-10-31T05:33:15.965Z,96561.59
2022-10-31T05:35:43.909Z,96528.28
2022-10-31T05:38:11.886Z,96542.66
2022-10-31T05:40:39.841Z,96557.94
2022-10-31T05:43:07.817Z,96552.50
2022-10-31T05:45:35.810Z,96569.25
2022-10-31T05:48:06.457Z,96571.00
2022-10-31T05:50:34.553Z,96570.09
2022-10-31T05:53:03.808Z,96574.44
2022-10-31T05:55:33.023Z,96565.06
2022-10-31T05:58:01.505Z,96577.47
2022-10-31T06:00:30.798Z,96589.22
2022-10-31T06:03:03.820Z,96579.63
2022-10-31T06:05:34.022Z,96552.59
2022-10-31T06:08:02.608Z,96585.75
2022-10-31T06:10:30.876Z,96575.59
2022-10-31T06:12:58.833Z,96566.41
2022-10-31T06:15:26.812Z,96581.78
2022-10-31T06:18:03.047Z,96554.44
2022-10-31T06:20:33.794Z,96565.44
2022-10-31T06:23:11.173Z,96589.00
2022-10-31T06:25:44.240Z,96586.38
2022-10-31T06:28:12.246Z,96590.97
2022-10-31T06:30:40.237Z,96586.59
2022-10-31T06:33:08.507Z,96568.38
2022-10-31T06:35:37.908Z,96567.44
2022-10-31T06:38:06.224Z,96576.78
2022-10-31T06:40:34.455Z,96587.66
2022-10-31T06:43:03.201Z,96600.59
2022-10-31T06:45:31.498Z,96598.66
2022-10-31T06:50:49.337Z,96595.91
2022-10-31T06:53:17.325Z,96603.00
2022-10-31T06:55:45.282Z,96601.66
2022-10-31T06:58:13.654Z,96590.19
2022-10-31T07:00:41.822Z,96606.19
2022-10-31T07:03:13.132Z,96607.59
2022-10-31T07:05:42.615Z,96604.97
2022-10-31T07:08:13.827Z,96565.22
2022-10-31T07:10:43.136Z,96610.91
2022-10-31T07:13:14.578Z,96608.84
2022-10-31T07:15:43.836Z,96603.41
2022-10-31T07:18:13.827Z,96619.19
2022-10-31T07:20:42.114Z,96607.59
2022-10-31T07:23:12.661Z,96620.47
2022-10-31T07:25:41.528Z,96603.97
2022-10-31T07:28:10.343Z,96592.53
2022-10-31T07:30:38.815Z,96618.44
2022-10-31T07:33:07.507Z,96615.66
2022-10-31T07:35:36.848Z,96601.25
2022-10-31T07:38:14.244Z,96613.56
2022-10-31T07:40:43.052Z,96636.47
2022-10-31T07:43:14.537Z,96595.16
2022-10-31T07:45:43.037Z,96613.63
2022-10-31T07:48:11.028Z,96608.22
2022-10-31T07:50:38.991Z,96598.41
2022-10-31T07:53:08.265Z,96603.81
2022-10-31T07:55:38.323Z,96597.50
2022-10-31T07:58:08.016Z,96604.09
2022-10-31T08:00:37.504Z,96609.19
2022-10-31T08:03:07.600Z,96601.50
2022-10-31T08:05:37.398Z,96588.50
2022-10-31T08:08:05.994Z,96603.75
2022-10-31T08:10:35.181Z,96599.09
2022-10-31T08:13:06.213Z,96589.06
2022-10-31T08:15:35.189Z,96587.44
2022-10-31T08:18:03.495Z,96597.59
2022-10-31T08:20:34.603Z,96579.81
2022-10-31T08:23:07.133Z,96595.19
2022-10-31T08:25:38.636Z,96590.78
2022-10-31T08:28:09.204Z,96584.59
2022-10-31T08:30:38.827Z,96562.31
2022-10-31T08:33:08.704Z,96579.34
2022-10-31T08:35:37.171Z,96569.88
2022-10-31T08:38:05.644Z,96579.81
2022-10-31T08:40:36.037Z,96562.41
2022-10-31T08:43:05.922Z,96574.84
2022-10-31T08:45:36.673Z,96573.41
2022-10-31T08:48:06.616Z,96568.25
2022-10-31T08:50:36.594Z,96564.84
2022-10-31T08:53:06.423Z,96563.19
2022-10-31T08:55:36.565Z,96555.00
2022-10-31T08:58:05.676Z,96506.97
2022-10-31T09:00:34.001Z,96502.63
2022-10-31T09:03:05.686Z,96558.63
2022-10-31T09:05:34.388Z,96542.06
2022-10-31T09:08:04.201Z,96552.28
2022-10-31T09:10:33.980Z,96559.88
2022-10-31T09:13:03.325Z,96556.44
2022-10-31T09:15:32.436Z,96546.66
2022-10-31T09:18:01.869Z,96554.53
2022-10-31T09:20:32.408Z,96549.75
2022-10-31T09:23:01.923Z,96552.25
2022-10-31T09:25:30.412Z,96546.84
2022-10-31T09:27:59.873Z,96483.13
2022-10-31T09:30:29.580Z,96545.16
2022-10-31T09:32:58.473Z,96548.41
2022-10-31T09:35:26.801Z,96551.84
2022-10-31T09:38:00.209Z,96550.34
2022-10-31T09:40:33.611Z,96546.00
2022-10-31T09:43:08.210Z,96530.03
2022-10-31T09:45:40.205Z,96537.66
2022-10-31T09:48:17.549Z,96544.50
2022-10-31T09:50:48.823Z,96551.25
2022-10-31T09:53:25.064Z,96548.41
2022-10-31T09:55:53.800Z,96542.28
2022-10-31T09:58:25.239Z,96531.72
2022-10-31T10:00:54.798Z,96531.03
2022-10-31T10:03:30.728Z,96534.91
2022-10-31T10:06:04.657Z,96531.13
2022-10-31T10:08:35.109Z,96515.09
2022-10-31T10:11:10.892Z,96456.16
2022-10-31T10:13:48.118Z,96530.59
2022-10-31T10:16:26.670Z,96531.53
2022-10-31T10:19:04.690Z,96527.00
2022-10-31T10:21:43.483Z,96525.31
2022-10-31T10:24:20.722Z,96524.16
2022-10-31T10:27:20.687Z,96521.88
2022-10-31T10:29:53.880Z,96449.13
2022-10-31T10:32:25.827Z,96517.00
2022-10-31T10:34:55.904Z,96515.34
2022-10-31T10:37:28.196Z,96430.63
2022-10-31T10:40:00.620Z,96510.13
2022-10-31T10:42:46.816Z,96507.81
2022-10-31T10:45:37.241Z,96503.34
2022-10-31T10:48:11.261Z,96490.13
2022-10-31T10:50:42.439Z,96478.91
2022-10-31T10:53:22.409Z,96499.72
2022-10-31T10:55:57.224Z,96495.06
2022-10-31T10:58:25.389Z,96499.94
2022-10-31T11:00:55.259Z,96497.22
2022-10-31T11:03:24.156Z,96498.72
2022-10-31T11:05:55.468Z,96496.22
2022-10-31T11:08:28.497Z,96491.38
2022-10-31T11:11:03.901Z,96462.03
2022-10-31T11:13:32.608Z,96482.31
2022-10-31T11:16:03.097Z,96485.84
2022-10-31T11:18:33.099Z,96478.78
2022-10-31T11:21:03.895Z,96480.56
2022-10-31T11:23:33.075Z,96477.44
2022-10-31T11:26:03.838Z,96481.41
2022-10-31T11:28:33.379Z,96444.88
2022-10-31T11:31:03.229Z,96385.16
2022-10-31T11:33:34.314Z,96474.47
2022-10-31T11:36:03.221Z,96483.47
2022-10-31T11:38:36.361Z,96411.53
2022-10-31T11:41:12.352Z,96463.31
2022-10-31T11:43:53.953Z,96460.34
2022-10-31T11:46:33.100Z,96447.53
2022-10-31T11:49:01.252Z,96459.06
2022-10-31T11:51:31.071Z,96437.34
2022-10-31T11:54:02.941Z,96455.03
2022-10-31T11:56:41.912Z,96448.03
2022-10-31T11:59:20.502Z,96435.50
2022-10-31T12:01:50.587Z,96443.78
2022-10-31T12:04:19.636Z,96429.25
2022-10-31T12:06:51.133Z,96443.19
2022-10-31T12:09:24.457Z,96443.38
2022-10-31T12:12:07.234Z,96437.16
2022-10-31T12:14:40.267Z,96428.72
2022-10-31T12:17:21.166Z,96429.03
2022-10-31T12:20:00.681Z,96402.50
2022-10-31T12:22:36.430Z,96435.94
2022-10-31T12:25:16.533Z,96425.59
2022-10-31T12:27:58.395Z,96428.72
2022-10-31T12:30:31.302Z,96413.44
2022-10-31T12:33:14.075Z,96416.16
2022-10-31T12:35:49.692Z,96412.31
2022-10-31T12:38:30.691Z,96415.22
2022-10-31T12:41:15.564Z,96410.25
2022-10-31T12:43:49.102Z,96419.84
2022-10-31T12:46:24.537Z,96408.75
2022-10-31T12:49:19.871Z,96408.50
2022-10-31T12:51:55.958Z,96402.22
2022-10-31T12:54:34.430Z,96413.38
2022-10-31T12:57:10.343Z,96410.50
2022-10-31T12:59:42.933Z,96410.94
2022-10-31T13:02:17.973Z,96387.88
2022-10-31T13:04:51.321Z,96396.25
2022-10-31T13:07:25.252Z,96399.47
2022-10-31T13:09:58.827Z,96393.78
2022-10-31T13:12:30.939Z,96392.91
2022-10-31T13:15:08.171Z,96386.03
2022-10-31T13:17:41.258Z,96387.41
2022-10-31T13:20:20.022Z,96394.69
2022-10-31T13:22:50.295Z,96386.56
2022-10-31T13:25:21.609Z,96392.88
2022-10-31T13:27:53.860Z,96393.09
2022-10-31T13:30:24.476Z,96379.88
2022-10-31T13:32:56.737Z,96380.03
2022-10-31T13:35:30.473Z,96380.97
2022-10-31T13:38:07.734Z,96361.22
2022-10-31T13:40:41.559Z,96361.63
2022-10-31T13:43:19.293Z,96370.44
2022-10-31T13:45:52.958Z,96375.47
2022-10-31T13:48:35.525Z,96376.97
2022-10-31T13:51:05.585Z,96374.22
2022-10-31T13:53:43.190Z,96362.06
2022-10-31T13:56:21.276Z,96369.41
2022-10-31T13:59:20.747Z,96361.16
2022-10-31T14:01:53.538Z,96358.41
2022-10-31T14:04:25.852Z,96356.16
2022-10-31T14:07:08.175Z,96361.00
2022-10-31T14:09:37.998Z,96354.81
2022-10-31T14:12:09.028Z,96354.81
2022-10-31T14:14:46.236Z,96352.03
2022-10-31T14:17:24.691Z,96355.09
2022-10-31T14:20:04.635Z,96354.72
2022-10-31T14:22:36.348Z,96362.84
2022-10-31T14:25:29.900Z,96353.78
2022-10-31T14:27:59.037Z,96353.97
2022-10-31T14:30:37.954Z,96354.59
2022-10-31T14:33:27.778Z,96347.88
2022-10-31T14:35:59.635Z,96346.31
2022-10-31T14:38:56.903Z,96346.06
2022-10-31T14:41:46.696Z,96346.34
2022-10-31T14:44:44.707Z,96354.75
2022-10-31T14:47:22.520Z,96318.09
2022-10-31T14:50:08.015Z,96346.53
2022-10-31T14:52:39.425Z,96335.56
2022-10-31T14:55:13.921Z,96350.72
2022-10-31T14:57:52.033Z,96347.38
2022-10-31T15:00:21.533Z,96343.91
2022-10-31T15:02:58.482Z,96354.28
2022-10-31T15:05:30.682Z,96345.94
2022-10-31T15:08:00.714Z,96342.81
2022-10-31T15:10:31.010Z,96345.50
2022-10-31T15:13:10.949Z,96265.13
2022-10-31T15:15:39.989Z,96349.34
2022-10-31T15:18:08.127Z,96343.66
2022-10-31T15:20:45.324Z,96356.13
2022-10-31T15:23:18.716Z,96322.16
2022-10-31T15:25:46.910Z,96342.72
2022-10-31T15:28:16.241Z,96353.53
2022-10-31T15:30:53.022Z,96336.28
2022-10-31T15:33:26.473Z,96346.63
2022-10-31T15:36:03.033Z,96335.25
2022-10-31T15:38:31.733Z,96319.78
2022-10-31T15:41:03.009Z,96334.94
2022-10-31T15:43:36.305Z,96355.09
2022-10-31T15:46:04.806Z,96345.75
2022-10-31T15:48:35.542Z,96336.78
2022-10-31T15:51:05.993Z,96348.69
2022-10-31T15:53:38.530Z,96345.41
2022-10-31T15:56:08.788Z,96348.56
2022-10-31T15:58:45.201Z,96340.91
2022-10-31T16:01:23.986Z,96345.88
2022-10-31T16:04:05.358Z,96344.03
2022-10-31T16:06:37.406Z,96347.88
2022-10-31T16:09:23.469Z,96305.59
2022-10-31T16:11:52.200Z,96286.50
2022-10-31T16:14:25.601Z,96342.09
2022-10-31T16:16:55.404Z,96351.75
2022-10-31T16:19:27.922Z,96350.81
2022-10-31T16:22:04.880Z,96357.25
2022-10-31T16:24:34.810Z,96355.47
2022-10-31T16:27:06.082Z,96345.84
2022-10-31T16:29:41.701Z,96310.03
2022-10-31T16:32:31.815Z,96276.47
2022-10-31T16:35:15.134Z,96292.75
2022-10-31T16:37:44.826Z,96356.84
2022-10-31T16:40:14.037Z,96348.81
2022-10-31T16:42:42.484Z,96284.31
2022-10-31T16:45:17.154Z,96362.47
2022-10-31T16:47:45.234Z,96357.81
2022-10-31T16:50:18.596Z,96366.63
2022-10-31T16:55:42.676Z,96351.66
2022-10-31T16:58:18.825Z,96292.72
2022-10-31T17:00:47.106Z,96371.34
2022-10-31T17:03:15.868Z,96374.81
2022-10-31T17:05:44.530Z,96365.13
2022-10-31T17:08:14.147Z,96376.25
2022-10-31T17:10:43.400Z,96378.50
2022-10-31T17:13:16.613Z,96370.16
2022-10-31T17:15:47.559Z,96335.63
2022-10-31T17:18:16.957Z,96360.38
2022-10-31T17:20:49.235Z,96330.88
2022-10-31T17:23:19.803Z,96385.47
2022-10-31T17:25:47.899Z,96387.16
2022-10-31T17:28:16.112Z,96378.50
2022-10-31T17:30:44.793Z,96341.34
2022-10-31T17:33:14.454Z,96385.47
2022-10-31T17:35:42.544Z,96353.75
2022-10-31T17:38:11.767Z,96389.09
2022-10-31T17:40:42.877Z,96382.69
2022-10-31T17:43:13.985Z,96278.06
2022-10-31T17:45:42.957Z,96368.34
2022-10-31T17:48:17.619Z,96378.50
2022-10-31T17:50:46.690Z,96353.06
2022-10-31T17:53:14.815Z,96375.94
2022-10-31T17:55:44.349Z,96383.53
2022-10-31T17:58:13.791Z,96348.63
2022-10-31T18:00:44.774Z,96363.53
2022-10-31T18:03:15.589Z,96373.22
2022-10-31T18:05:52.983Z,96366.34
2022-10-31T18:08:21.054Z,96368.91
2022-10-31T18:10:50.518Z,96346.63
2022-10-31T18:13:18.693Z,96376.75
2022-10-31T18:15:46.786Z,96349.91
2022-10-31T18:18:15.037Z,96356.59
2022-10-31T18:20:43.647Z,96368.91
2022-10-31T18:23:11.806Z,96227.53
2022-10-31T18:25:40.971Z,96361.47
2022-10-31T18:28:10.611Z,96364.72
2022-10-31T18:30:41.189Z,96269.78
2022-10-31T18:33:10.320Z,96349.78
2022-10-31T18:35:39.119Z,96354.38
2022-10-31T18:38:09.011Z,96312.47
2022-10-31T18:40:37.541Z,96329.03
2022-10-31T18:43:06.004Z,96356.88
2022-10-31T18:45:46.410Z,96352.91
2022-10-31T18:48:17.338Z,96314.19
2022-10-31T18:50:45.996Z,96309.66
2022-10-31T18:53:14.199Z,96351.38
2022-10-31T18:55:45.697Z,96350.16
2022-10-31T18:58:18.364Z,96297.50
2022-10-31T19:00:48.272Z,96346.63
2022-10-31T19:03:16.426Z,96348.19
2022-10-31T19:05:44.507Z,96341.09
2022-10-31T19:08:13.067Z,96341.22
2022-10-31T19:10:41.832Z,96308.34
2022-10-31T19:13:10.563Z,96340.16
2022-10-31T19:15:38.684Z,96276.53
2022-10-31T19:18:08.346Z,96336.31
2022-10-31T19:20:39.448Z,96331.28
2022-10-31T19:23:10.609Z,96301.25
2022-10-31T19:25:39.441Z,96342.31
2022-10-31T19:28:07.879Z,96307.34
2022-10-31T19:30:35.973Z,96331.69
2022-10-31T19:33:04.455Z,96297.06
2022-10-31T19:35:33.996Z,96298.16
2022-10-31T19:38:02.366Z,96281.47
2022-10-31T19:40:30.697Z,96245.59
2022-10-31T19:42:59.866Z,96324.84
2022-10-31T19:45:28.049Z,96322.41
2022-10-31T19:47:56.114Z,96319.84
2022-10-31T19:50:24.174Z,96308.44
2022-10-31T19:52:53.596Z,96294.78
2022-10-31T19:55:21.653Z,96268.44
2022-10-31T19:58:01.357Z,96317.59
2022-10-31T20:00:30.157Z,96319.94
2022-10-31T20:02:58.319Z,96320.69
2022-10-31T20:05:26.708Z,96317.41
2022-10-31T20:07:57.005Z,96321.47
2022-10-31T20:10:25.361Z,96320.44
2022-10-31T20:12:53.481Z,96319.97
2022-10-31T20:15:21.733Z,96288.50
2022-10-31T20:17:49.856Z,96319.41
2022-10-31T20:20:18.293Z,96271.75
2022-10-31T20:22:49.712Z,96272.44
2022-10-31T20:25:19.794Z,96314.25
2022-10-31T20:27:48.170Z,96321.88
2022-10-31T20:30:16.395Z,96302.50
2022-10-31T20:32:49.091Z,96315.00
2022-10-31T20:35:18.454Z,96178.31
2022-10-31T20:37:46.700Z,96305.91
2022-10-31T20:40:14.928Z,96284.81
2022-10-31T20:42:44.494Z,96318.34
2022-10-31T20:45:12.782Z,96192.16
2022-10-31T20:47:40.886Z,96321.97
2022-10-31T20:50:09.533Z,96242.81
2022-10-31T20:52:37.619Z,96318.47
2022-10-31T20:55:06.328Z,96281.31
2022-10-31T20:57:34.587Z,96325.25
2022-10-31T21:00:05.160Z,96320.25
2022-10-31T21:02:33.336Z,96318.34
2022-10-31T21:05:08.359Z,96316.03
2022-10-31T21:07:36.712Z,96321.41
2022-10-31T21:10:14.744Z,96293.66
2022-10-31T21:12:44.026Z,96314.66
2022-10-31T21:15:15.195Z,96315.94
2022-10-31T21:17:43.375Z,96268.47
2022-10-31T21:20:14.452Z,96306.72
2022-10-31T21:22:42.484Z,96309.41
2022-10-31T21:25:18.335Z,96257.03
2022-10-31T21:27:46.581Z,96300.22
2022-10-31T21:30:16.632Z,96302.06
2022-10-31T21:32:44.922Z,96307.53
2022-10-31T21:35:13.049Z,96305.50
2022-10-31T21:37:46.021Z,96293.63
2022-10-31T21:40:14.351Z,96281.25
2022-10-31T21:42:42.572Z,96285.66
2022-10-31T21:45:12.916Z,96208.28
2022-10-31T21:47:42.366Z,96288.94
2022-10-31T21:50:10.887Z,96298.03
2022-10-31T21:52:38.985Z,96229.84
2022-10-31T21:55:07.137Z,96288.59
2022-10-31T21:57:35.326Z,96296.25
2022-10-31T22:00:04.263Z,96277.72
2022-10-31T22:02:32.440Z,96294.25
2022-10-31T22:05:05.790Z,96287.34
2022-10-31T22:07:33.952Z,96293.41
2022-10-31T22:10:02.093Z,96291.09
2022-10-31T22:12:33.297Z,96237.56
2022-10-31T22:15:01.406Z,96237.84
2022-10-31T22:17:29.567Z,96299.66
2022-10-31T22:19:57.614Z,96284.50
2022-10-31T22:22:27.101Z,96291.69
2022-10-31T22:24:58.257Z,96293.66
2022-10-31T22:27:26.643Z,96290.63
2022-10-31T22:29:56.673Z,96274.38
2022-10-31T22:32:27.970Z,96293.16
2022-10-31T22:34:56.096Z,96295.09
2022-10-31T22:37:24.332Z,96289.50
2022-10-31T22:39:53.926Z,96289.91
2022-10-31T22:42:21.946Z,96233.53
2022-10-31T22:44:50.274Z,96287.09
2022-10-31T22:47:18.338Z,96284.88
2022-10-31T22:49:47.363Z,96218.06
2022-10-31T22:52:15.415Z,96233.03
2022-10-31T22:54:44.337Z,96269.81
2022-10-31T22:57:13.879Z,96273.22
2022-10-31T22:59:41.939Z,96256.16
2022-10-31T23:02:12.496Z,96257.28
2022-10-31T23:04:41.006Z,96256.63
2022-10-31T23:07:11.248Z,96254.13
2022-10-31T23:09:42.039Z,96271.41
2022-10-31T23:12:27.485Z,96121.28
2022-10-31T23:14:57.057Z,96281.13
2022-10-31T23:17:25.165Z,96225.78
2022-10-31T23:19:53.227Z,96278.19
2022-10-31T23:22:22.425Z,96277.38
2022-10-31T23:24:52.658Z,96206.72
2022-10-31T23:27:21.426Z,96281.09
2022-10-31T23:29:50.540Z,96273.50
2022-10-31T23:32:22.166Z,96281.16
2022-10-31T23:34:51.380Z,96277.09
2022-10-31T23:37:20.600Z,96254.19
2022-10-31T23:39:49.034Z,96276.50
2022-10-31T23:42:19.095Z,96033.41
2022-10-31T23:44:49.644Z,96288.03
2022-10-31T23:47:18.652Z,96272.91
2022-10-31T23:49:48.538Z,96269.13
2022-10-31T23:52:17.044Z,96267.19
2022-10-31T23:54:45.611Z,96271.69
2022-10-31T23:57:16.903Z,96267.59
2022-10-31T23:59:45.074Z,96235.88
